createdAt,value
2022-08-28T00:00:21.179Z,100134.53
2022-08-28T00:01:23.417Z,100127.25
2022-08-28T00:02:25.674Z,100134.53
2022-08-28T00:03:28.027Z,100133.69
2022-08-28T00:04:34.220Z,100134.19
2022-08-28T00:05:38.997Z,100131.38
2022-08-28T00:06:41.224Z,100124.94
2022-08-28T00:07:47.686Z,100131.72
2022-08-28T00:08:50.285Z,100122.16
2022-08-28T00:09:52.512Z,100123.00
2022-08-28T00:10:58.170Z,100127.75
2022-08-28T00:12:00.982Z,100123.81
2022-08-28T00:13:03.340Z,100121.00
2022-08-28T00:14:07.472Z,100127.44
2022-08-28T00:15:22.014Z,100122.16
2022-08-28T00:16:24.611Z,100127.44
2022-08-28T00:17:28.873Z,100120.19
2022-08-28T00:18:31.627Z,100119.34
2022-08-28T00:19:38.458Z,100123.00
2022-08-28T00:20:41.666Z,100124.13
2022-08-28T00:21:47.266Z,100122.47
2022-08-28T00:22:51.200Z,100119.69
2022-08-28T00:23:53.751Z,100122.47
2022-08-28T00:24:55.992Z,100130.06
2022-08-28T00:25:58.406Z,100124.47
2022-08-28T00:27:22.061Z,100132.88
2022-08-28T00:28:24.706Z,100137.63
2022-08-28T00:29:29.808Z,100138.28
2022-08-28T00:30:42.411Z,100138.28
2022-08-28T00:31:44.762Z,100140.28
2022-08-28T00:32:47.086Z,100136.97
2022-08-28T00:33:49.307Z,100137.78
2022-08-28T00:34:53.419Z,100140.56
2022-08-28T00:35:57.374Z,100144.56
2022-08-28T00:37:00.293Z,100142.56
2022-08-28T00:38:02.608Z,100152.09
2022-08-28T00:39:06.451Z,100157.72
2022-08-28T00:40:10.220Z,100146.84
2022-08-28T00:41:12.582Z,100158.84
2022-08-28T00:42:17.508Z,100154.44
2022-08-28T00:43:26.577Z,100147.16
2022-08-28T00:44:30.061Z,100147.50
2022-08-28T00:45:38.738Z,100146.34
2022-08-28T00:46:45.293Z,100153.09
2022-08-28T00:47:48.702Z,100150.63
2022-08-28T00:48:50.968Z,100149.78
2022-08-28T00:49:56.408Z,100145.31
2022-08-28T00:51:18.155Z,100145.66
2022-08-28T00:52:23.770Z,100147.97
2022-08-28T00:53:29.073Z,100146.81
2022-08-28T00:54:58.405Z,100149.94
2022-08-28T00:56:12.865Z,100141.53
2022-08-28T00:57:20.156Z,100148.28
2022-08-28T00:58:23.412Z,100145.81
2022-08-28T00:59:26.078Z,100149.75
2022-08-28T01:00:31.041Z,100146.94
2022-08-28T01:01:33.384Z,100152.53
2022-08-28T01:02:36.031Z,100136.91
2022-08-28T01:03:41.523Z,100148.09
2022-08-28T01:04:44.054Z,100143.63
2022-08-28T01:05:49.331Z,100151.72
2022-08-28T01:06:54.591Z,100155.66
2022-08-28T01:07:59.001Z,100138.38
2022-08-28T01:09:01.387Z,100143.97
2022-08-28T01:10:05.637Z,100143.97
2022-08-28T01:11:10.936Z,100142.31
2022-08-28T01:12:19.681Z,100147.06
2022-08-28T01:13:24.213Z,100145.44
2022-08-28T01:14:30.977Z,100140.13
2022-08-28T01:15:36.864Z,100140.97
2022-08-28T01:16:40.300Z,100138.50
2022-08-28T01:17:46.143Z,100142.13
2022-08-28T01:18:53.077Z,100142.44
2022-08-28T01:20:00.288Z,100143.59
2022-08-28T01:21:13.557Z,100139.97
2022-08-28T01:22:40.183Z,100145.91
2022-08-28T01:23:53.967Z,100149.53
2022-08-28T01:24:59.178Z,100145.91
2022-08-28T01:26:01.491Z,100145.41
2022-08-28T01:27:08.796Z,100152.97
2022-08-28T01:28:13.825Z,100152.47
2022-08-28T01:29:16.439Z,100148.84
2022-08-28T01:30:21.680Z,100155.59
2022-08-28T01:31:25.471Z,100155.59
2022-08-28T01:32:43.361Z,100156.72
2022-08-28T01:33:46.506Z,100160.34
2022-08-28T01:34:48.773Z,100163.47
2022-08-28T01:35:53.532Z,100157.88
2022-08-28T01:36:55.722Z,100160.19
2022-08-28T01:38:02.048Z,100161.00
2022-08-28T01:39:19.503Z,100162.13
2022-08-28T01:40:31.013Z,100158.84
2022-08-28T01:41:34.048Z,100156.88
2022-08-28T01:42:40.898Z,100164.44
2022-08-28T01:43:44.060Z,100161.66
2022-08-28T01:44:46.595Z,100160.00
2022-08-28T01:45:54.819Z,100156.69
2022-08-28T01:46:58.596Z,100161.47
2022-08-28T01:48:00.773Z,100155.88
2022-08-28T01:49:04.006Z,100159.81
2022-08-28T01:50:08.377Z,100166.22
2022-08-28T01:51:12.193Z,100152.56
2022-08-28T01:52:14.356Z,100165.72
2022-08-28T01:53:19.650Z,100157.34
2022-08-28T01:54:30.263Z,100158.16
2022-08-28T01:55:35.863Z,100157.34
2022-08-28T01:56:43.041Z,100166.53
2022-08-28T01:57:48.033Z,100166.53
2022-08-28T01:58:50.538Z,100168.53
2022-08-28T01:59:54.489Z,100159.31
2022-08-28T02:00:57.602Z,100166.06
2022-08-28T02:01:59.896Z,100176.13
2022-08-28T02:03:02.992Z,100166.88
2022-08-28T02:04:06.142Z,100168.00
2022-08-28T02:05:10.239Z,100162.41
2022-08-28T02:06:13.822Z,100166.38
2022-08-28T02:07:17.072Z,100167.19
2022-08-28T02:08:20.606Z,100177.56
2022-08-28T02:09:22.805Z,100170.31
2022-08-28T02:10:27.114Z,100173.94
2022-08-28T02:11:32.298Z,100171.13
2022-08-28T02:12:34.736Z,100171.13
2022-08-28T02:13:37.743Z,100171.97
2022-08-28T02:14:39.974Z,100179.53
2022-08-28T02:15:43.892Z,100175.91
2022-08-28T02:16:46.639Z,100179.53
2022-08-28T02:17:48.836Z,100177.88
2022-08-28T02:18:51.052Z,100173.94
2022-08-28T02:19:53.308Z,100187.13
2022-08-28T02:20:55.895Z,100178.72
2022-08-28T02:21:58.088Z,100179.53
2022-08-28T02:23:00.961Z,100173.94
2022-08-28T02:24:04.582Z,100168.66
2022-08-28T02:25:07.784Z,100174.25
2022-08-28T02:26:14.927Z,100167.53
2022-08-28T02:27:17.207Z,100177.88
2022-08-28T02:28:19.372Z,100169.47
2022-08-28T02:29:22.111Z,100171.47
2022-08-28T02:30:24.856Z,100176.25
2022-08-28T02:31:27.635Z,100179.84
2022-08-28T02:32:30.013Z,100170.66
2022-08-28T02:33:32.319Z,100177.06
2022-08-28T02:34:35.215Z,100179.03
2022-08-28T02:35:42.619Z,100176.25
2022-08-28T02:36:44.817Z,100174.25
2022-08-28T02:37:47.913Z,100182.66
2022-08-28T02:38:56.867Z,100172.59
2022-08-28T02:40:02.559Z,100177.06
2022-08-28T02:41:08.460Z,100178.19
2022-08-28T02:42:10.639Z,100177.38
2022-08-28T02:43:13.431Z,100176.25
2022-08-28T02:44:15.601Z,100177.38
2022-08-28T02:45:19.931Z,100183.78
2022-08-28T02:46:22.127Z,100181.00
2022-08-28T02:47:24.469Z,100185.78
2022-08-28T02:48:31.761Z,100187.72
2022-08-28T02:49:36.056Z,100177.72
2022-08-28T02:50:41.538Z,100184.94
2022-08-28T02:51:43.863Z,100185.78
2022-08-28T02:52:46.921Z,100176.88
2022-08-28T02:53:50.569Z,100184.13
2022-08-28T02:54:52.735Z,100184.13
2022-08-28T02:55:55.476Z,100193.31
2022-08-28T02:56:58.756Z,100183.31
2022-08-28T02:58:01.091Z,100178.84
2022-08-28T02:59:03.619Z,100188.91
2022-08-28T03:00:12.048Z,100179.66
2022-08-28T03:01:14.497Z,100190.03
2022-08-28T03:02:17.096Z,100188.91
2022-08-28T03:03:20.409Z,100188.06
2022-08-28T03:04:25.586Z,100193.66
2022-08-28T03:05:27.769Z,100185.25
2022-08-28T03:06:33.846Z,100197.28
2022-08-28T03:07:36.185Z,100189.19
2022-08-28T03:08:39.746Z,100190.03
2022-08-28T03:09:43.710Z,100177.19
2022-08-28T03:10:45.905Z,100186.41
2022-08-28T03:11:48.831Z,100180.81
2022-08-28T03:12:51.847Z,100179.19
2022-08-28T03:13:54.520Z,100181.13
2022-08-28T03:14:57.052Z,100180.66
2022-08-28T03:15:59.578Z,100176.69
2022-08-28T03:17:08.039Z,100184.25
2022-08-28T03:18:11.489Z,100183.94
2022-08-28T03:19:13.711Z,100185.06
2022-08-28T03:20:16.453Z,100183.44
2022-08-28T03:21:20.970Z,100193.78
2022-08-28T03:22:43.206Z,100191.00
2022-08-28T03:23:45.442Z,100196.59
2022-08-28T03:24:47.726Z,100188.50
2022-08-28T03:25:50.931Z,100185.72
2022-08-28T03:26:53.160Z,100191.00
2022-08-28T03:27:56.116Z,100186.53
2022-08-28T03:28:59.792Z,100189.34
2022-08-28T03:30:07.150Z,100186.84
2022-08-28T03:31:11.912Z,100193.59
2022-08-28T03:32:14.170Z,100185.53
2022-08-28T03:33:16.761Z,100186.38
2022-08-28T03:34:19.023Z,100198.69
2022-08-28T03:35:22.047Z,100189.47
2022-08-28T03:36:26.674Z,100195.06
2022-08-28T03:37:28.916Z,100192.25
2022-08-28T03:38:31.160Z,100191.44
2022-08-28T03:39:33.372Z,100189.78
2022-08-28T03:40:39.770Z,100195.38
2022-08-28T03:41:44.966Z,100197.69
2022-08-28T03:42:53.458Z,100194.56
2022-08-28T03:44:01.319Z,100203.28
2022-08-28T03:45:05.276Z,100203.28
2022-08-28T03:46:09.182Z,100197.69
2022-08-28T03:47:12.860Z,100199.66
2022-08-28T03:48:15.486Z,100206.41
2022-08-28T03:49:20.479Z,100195.22
2022-08-28T03:50:23.386Z,100196.34
2022-08-28T03:51:31.537Z,100194.69
2022-08-28T03:52:33.706Z,100193.03
2022-08-28T03:53:37.324Z,100196.69
2022-08-28T03:54:39.567Z,100193.38
2022-08-28T03:55:43.053Z,100198.97
2022-08-28T03:56:45.264Z,100192.84
2022-08-28T03:57:47.558Z,100195.63
2022-08-28T03:58:52.484Z,100193.16
2022-08-28T03:59:55.288Z,100197.63
2022-08-28T04:01:00.491Z,100200.41
2022-08-28T04:02:02.805Z,100199.59
2022-08-28T04:03:05.030Z,100204.69
2022-08-28T04:04:07.729Z,100200.22
2022-08-28T04:05:11.262Z,100206.66
2022-08-28T04:06:14.405Z,100204.16
2022-08-28T04:07:17.636Z,100206.13
2022-08-28T04:08:20.742Z,100208.13
2022-08-28T04:09:23.012Z,100216.50
2022-08-28T04:10:25.217Z,100202.00
2022-08-28T04:11:28.423Z,100214.84
2022-08-28T04:12:32.841Z,100210.41
2022-08-28T04:13:37.703Z,100208.75
2022-08-28T04:14:40.057Z,100214.31
2022-08-28T04:15:44.879Z,100219.09
2022-08-28T04:16:47.131Z,100215.19
2022-08-28T04:17:49.655Z,100218.25
2022-08-28T04:18:54.113Z,100224.69
2022-08-28T04:19:56.509Z,100222.22
2022-08-28T04:21:05.700Z,100223.84
2022-08-28T04:22:08.404Z,100220.25
2022-08-28T04:23:15.697Z,100218.59
2022-08-28T04:24:18.049Z,100217.78
2022-08-28T04:25:21.613Z,100220.56
2022-08-28T04:26:26.535Z,100218.59
2022-08-28T04:27:28.790Z,100220.56
2022-08-28T04:28:32.761Z,100216.44
2022-08-28T04:29:34.950Z,100216.44
2022-08-28T04:30:37.164Z,100222.03
2022-08-28T04:31:39.508Z,100222.34
2022-08-28T04:32:42.109Z,100226.81
2022-08-28T04:33:48.085Z,100220.38
2022-08-28T04:34:50.640Z,100218.41
2022-08-28T04:35:53.207Z,100225.97
2022-08-28T04:36:55.464Z,100227.38
2022-08-28T04:37:59.961Z,100225.44
2022-08-28T04:39:06.056Z,100229.69
2022-08-28T04:40:11.009Z,100232.50
2022-08-28T04:41:15.904Z,100223.25
2022-08-28T04:42:18.304Z,100222.44
2022-08-28T04:43:21.333Z,100228.03
2022-08-28T04:44:26.058Z,100224.38
2022-08-28T04:45:30.073Z,100234.75
2022-08-28T04:46:32.426Z,100239.53
2022-08-28T04:47:38.601Z,100232.28
2022-08-28T04:48:42.192Z,100235.91
2022-08-28T04:49:44.409Z,100234.25
2022-08-28T04:50:51.728Z,100227.84
2022-08-28T04:51:54.499Z,100235.41
2022-08-28T04:52:56.868Z,100236.53
2022-08-28T04:53:59.354Z,100239.34
2022-08-28T04:55:02.521Z,100241.28
2022-08-28T04:56:07.211Z,100246.06
2022-08-28T04:57:09.429Z,100237.69
2022-08-28T04:58:11.770Z,100238.81
2022-08-28T04:59:17.667Z,100232.72
2022-08-28T05:00:19.928Z,100247.00
2022-08-28T05:01:27.061Z,100233.34
2022-08-28T05:02:29.533Z,100245.38
2022-08-28T05:03:35.432Z,100242.84
2022-08-28T05:04:37.689Z,100245.66
2022-08-28T05:05:45.283Z,100239.25
2022-08-28T05:06:47.719Z,100235.97
2022-08-28T05:07:49.928Z,100244.63
2022-08-28T05:08:52.403Z,100241.03
2022-08-28T05:09:54.780Z,100242.16
2022-08-28T05:10:58.277Z,100252.53
2022-08-28T05:12:03.909Z,100253.66
2022-08-28T05:13:09.400Z,100250.06
2022-08-28T05:14:16.319Z,100256.78
2022-08-28T05:15:18.694Z,100264.31
2022-08-28T05:16:22.621Z,100253.44
2022-08-28T05:17:24.831Z,100259.91
2022-08-28T05:18:28.395Z,100259.03
2022-08-28T05:19:32.876Z,100261.03
2022-08-28T05:20:37.221Z,100264.44
2022-08-28T05:21:42.792Z,100258.03
2022-08-28T05:22:44.986Z,100260.28
2022-08-28T05:23:53.722Z,100264.25
2022-08-28T05:24:55.951Z,100267.34
2022-08-28T05:25:58.380Z,100262.91
2022-08-28T05:27:01.539Z,100265.19
2022-08-28T05:28:04.160Z,100264.34
2022-08-28T05:29:07.594Z,100259.09
2022-08-28T05:30:10.704Z,100268.59
2022-08-28T05:31:18.526Z,100266.41
2022-08-28T05:32:21.663Z,100269.22
2022-08-28T05:33:27.023Z,100263.94
2022-08-28T05:34:29.251Z,100267.06
2022-08-28T05:35:45.888Z,100269.84
2022-08-28T05:36:48.992Z,100280.50
2022-08-28T05:37:54.930Z,100281.66
2022-08-28T05:38:58.113Z,100284.44
2022-08-28T05:40:00.449Z,100289.19
2022-08-28T05:41:03.763Z,100282.25
2022-08-28T05:42:06.159Z,100285.38
2022-08-28T05:43:10.916Z,100291.28
2022-08-28T05:44:16.484Z,100291.59
2022-08-28T05:45:19.138Z,100287.13
2022-08-28T05:46:23.316Z,100293.84
2022-08-28T05:47:25.529Z,100295.84
2022-08-28T05:48:32.873Z,100300.56
2022-08-28T05:49:40.791Z,100297.28
2022-08-28T05:50:47.542Z,100302.03
2022-08-28T05:51:50.828Z,100305.13
2022-08-28T05:52:53.046Z,100301.53
2022-08-28T05:53:57.746Z,100309.91
2022-08-28T05:55:00.698Z,100307.44
2022-08-28T05:56:07.040Z,100306.59
2022-08-28T05:57:09.389Z,100300.19
2022-08-28T05:58:31.201Z,100307.72
2022-08-28T05:59:33.451Z,100306.91
2022-08-28T06:00:35.669Z,100305.75
2022-08-28T06:01:46.859Z,100310.50
2022-08-28T06:02:49.828Z,100311.34
2022-08-28T06:04:17.870Z,100310.22
2022-08-28T06:05:20.305Z,100315.16
2022-08-28T06:06:24.730Z,100312.69
2022-08-28T06:07:30.038Z,100311.56
2022-08-28T06:08:33.219Z,100308.47
2022-08-28T06:09:35.454Z,100314.84
2022-08-28T06:10:45.913Z,100319.81
2022-08-28T06:11:59.169Z,100323.94
2022-08-28T06:13:02.340Z,100317.56
2022-08-28T06:14:11.119Z,100322.50
2022-08-28T06:15:13.336Z,100315.78
2022-08-28T06:16:15.640Z,100323.03
2022-08-28T06:17:17.933Z,100325.19
2022-08-28T06:18:26.752Z,100327.72
2022-08-28T06:19:30.961Z,100328.22
2022-08-28T06:20:37.820Z,100328.72
2022-08-28T06:21:41.609Z,100327.59
2022-08-28T06:22:44.055Z,100328.09
2022-08-28T06:23:46.254Z,100321.38
2022-08-28T06:24:48.439Z,100323.84
2022-08-28T06:25:51.789Z,100318.78
2022-08-28T06:26:58.086Z,100327.69
2022-08-28T06:28:01.153Z,100325.72
2022-08-28T06:29:06.502Z,100326.22
2022-08-28T06:30:09.572Z,100325.09
2022-08-28T06:31:23.665Z,100330.38
2022-08-28T06:32:27.763Z,100328.91
2022-08-28T06:33:30.456Z,100325.81
2022-08-28T06:34:33.092Z,100325.50
2022-08-28T06:35:40.807Z,100331.91
2022-08-28T06:36:43.103Z,100329.13
2022-08-28T06:37:45.267Z,100337.19
2022-08-28T06:38:47.467Z,100337.19
2022-08-28T06:39:49.627Z,100330.47
2022-08-28T06:40:55.021Z,100330.16
2022-08-28T06:41:57.257Z,100335.41
2022-08-28T06:42:59.446Z,100332.94
2022-08-28T06:44:01.758Z,100333.78
2022-08-28T06:45:07.362Z,100333.78
2022-08-28T06:46:09.747Z,100339.88
2022-08-28T06:47:14.885Z,100337.09
2022-08-28T06:48:19.797Z,100341.53
2022-08-28T06:49:22.087Z,100341.53
2022-08-28T06:50:24.328Z,100338.75
2022-08-28T06:51:34.203Z,100336.75
2022-08-28T06:52:36.401Z,100341.22
2022-08-28T06:53:42.764Z,100337.28
2022-08-28T06:54:55.277Z,100340.91
2022-08-28T06:56:07.379Z,100337.78
2022-08-28T06:57:10.065Z,100343.91
2022-08-28T06:58:13.209Z,100341.94
2022-08-28T06:59:15.557Z,100346.38
2022-08-28T07:00:18.260Z,100350.84
2022-08-28T07:01:29.731Z,100353.31
2022-08-28T07:02:35.511Z,100345.78
2022-08-28T07:03:44.392Z,100353.53
2022-08-28T07:04:51.449Z,100350.72
2022-08-28T07:05:58.462Z,100348.47
2022-08-28T07:07:00.682Z,100350.97
2022-08-28T07:08:03.132Z,100354.25
2022-08-28T07:09:07.530Z,100353.94
2022-08-28T07:10:10.140Z,100353.66
2022-08-28T07:12:40.542Z,100351.03
2022-08-28T07:13:44.815Z,100347.94
2022-08-28T07:14:46.996Z,100352.09
2022-08-28T07:15:49.284Z,100348.97
2022-08-28T07:16:51.885Z,100361.50
2022-08-28T07:17:54.205Z,100355.59
2022-08-28T07:18:57.326Z,100362.19
2022-08-28T07:19:59.591Z,100362.72
2022-08-28T07:21:02.374Z,100354.00
2022-08-28T07:22:05.026Z,100358.47
2022-08-28T07:23:10.828Z,100364.25
2022-08-28T07:24:15.460Z,100361.97
2022-08-28T07:25:17.820Z,100361.63
2022-08-28T07:26:24.537Z,100364.13
2022-08-28T07:27:26.775Z,100363.81
2022-08-28T07:28:29.289Z,100360.72
2022-08-28T07:29:31.480Z,100363.19
2022-08-28T07:30:33.756Z,100356.44
2022-08-28T07:31:36.685Z,100366.19
2022-08-28T07:32:41.823Z,100365.88
2022-08-28T07:33:44.415Z,100362.25
2022-08-28T07:34:46.685Z,100368.34
2022-08-28T07:35:50.577Z,100364.41
2022-08-28T07:36:52.768Z,100358.47
2022-08-28T07:37:55.013Z,100372.16
2022-08-28T07:38:59.362Z,100363.16
2022-08-28T07:40:01.747Z,100373.16
2022-08-28T07:41:04.594Z,100373.38
2022-08-28T07:42:07.008Z,100367.44
2022-08-28T07:43:28.049Z,100363.50
2022-08-28T07:44:51.194Z,100364.03
2022-08-28T07:46:11.611Z,100367.03
2022-08-28T07:47:14.192Z,100375.59
2022-08-28T07:48:16.853Z,100365.25
2022-08-28T07:49:24.717Z,100367.41
2022-08-28T07:50:26.937Z,100370.72
2022-08-28T07:51:29.288Z,100368.41
2022-08-28T07:52:31.476Z,100380.16
2022-08-28T07:53:41.331Z,100374.25
2022-08-28T07:54:43.515Z,100375.56
2022-08-28T07:55:45.731Z,100370.16
2022-08-28T07:56:48.577Z,100380.22
2022-08-28T07:57:50.773Z,100374.31
2022-08-28T07:58:56.903Z,100375.13
2022-08-28T07:59:59.617Z,100383.72
2022-08-28T08:01:01.921Z,100380.91
2022-08-28T08:02:05.934Z,100381.41
2022-08-28T08:03:08.310Z,100381.94
2022-08-28T08:04:16.076Z,100377.97
2022-08-28T08:05:18.422Z,100379.66
2022-08-28T08:06:21.525Z,100383.44
2022-08-28T08:07:23.739Z,100382.00
2022-08-28T08:08:26.486Z,100383.00
2022-08-28T08:09:28.762Z,100384.00
2022-08-28T08:10:34.171Z,100389.47
2022-08-28T08:11:36.874Z,100382.91
2022-08-28T08:12:39.068Z,100386.41
2022-08-28T08:13:41.409Z,100395.47
2022-08-28T08:14:44.364Z,100388.59
2022-08-28T08:15:47.525Z,100386.47
2022-08-28T08:16:53.564Z,100392.13
2022-08-28T08:17:55.736Z,100394.81
2022-08-28T08:18:58.199Z,100391.19
2022-08-28T08:20:01.257Z,100387.94
2022-08-28T08:21:09.990Z,100395.56
2022-08-28T08:22:12.562Z,100387.47
2022-08-28T08:23:15.573Z,100387.84
2022-08-28T08:24:21.110Z,100391.00
2022-08-28T08:25:23.371Z,100391.31
2022-08-28T08:26:28.402Z,100389.19
2022-08-28T08:28:50.627Z,100395.19
2022-08-28T08:29:52.907Z,100402.78
2022-08-28T08:31:05.736Z,100392.38
2022-08-28T08:32:11.021Z,100391.53
2022-08-28T08:33:13.619Z,100400.31
2022-08-28T08:34:16.606Z,100397.84
2022-08-28T08:35:18.861Z,100401.47
2022-08-28T08:36:23.230Z,100393.34
2022-08-28T08:37:25.495Z,100404.56
2022-08-28T08:38:31.287Z,100398.13
2022-08-28T08:39:37.860Z,100402.94
2022-08-28T08:40:40.111Z,100406.53
2022-08-28T08:41:48.225Z,100404.84
2022-08-28T08:42:57.148Z,100414.09
2022-08-28T08:44:17.976Z,100403.97
2022-08-28T08:45:24.473Z,100410.38
2022-08-28T08:46:52.417Z,100405.88
2022-08-28T08:47:56.999Z,100405.00
2022-08-28T08:49:03.124Z,100410.97
2022-08-28T08:50:18.604Z,100409.25
2022-08-28T08:51:40.174Z,100411.06
2022-08-28T08:53:06.762Z,100401.25
2022-08-28T08:54:22.633Z,100406.19
2022-08-28T08:55:27.264Z,100409.66
2022-08-28T08:56:34.919Z,100403.34
2022-08-28T08:57:39.143Z,100411.59
2022-08-28T08:58:45.680Z,100424.63
2022-08-28T08:59:47.979Z,100414.66
2022-08-28T09:01:09.646Z,100423.25
2022-08-28T09:02:19.310Z,100423.41
2022-08-28T09:03:32.693Z,100418.75
2022-08-28T09:04:44.175Z,100422.16
2022-08-28T09:05:54.171Z,100414.22
2022-08-28T09:07:13.918Z,100419.31
2022-08-28T09:08:31.956Z,100416.66
2022-08-28T09:09:42.816Z,100417.59
2022-08-28T09:10:55.233Z,100408.47
2022-08-28T09:12:06.350Z,100413.78
2022-08-28T09:13:24.103Z,100413.56
2022-08-28T09:14:49.831Z,100412.84
2022-08-28T09:15:52.432Z,100412.16
2022-08-28T09:16:56.303Z,100402.53
2022-08-28T09:18:15.707Z,100409.47
2022-08-28T09:19:20.512Z,100409.97
2022-08-28T09:20:33.281Z,100410.44
2022-08-28T09:21:40.527Z,100425.00
2022-08-28T09:22:46.263Z,100417.03
2022-08-28T09:23:48.486Z,100415.84
2022-08-28T09:24:52.009Z,100417.50
2022-08-28T09:25:56.716Z,100418.66
2022-08-28T09:27:23.236Z,100410.72
2022-08-28T09:28:32.469Z,100407.53
2022-08-28T09:29:36.670Z,100411.06
2022-08-28T09:30:39.099Z,100408.25
2022-08-28T09:31:41.986Z,100407.88
2022-08-28T09:32:58.030Z,100413.19
2022-08-28T09:34:26.648Z,100405.22
2022-08-28T09:35:31.956Z,100411.66
2022-08-28T09:36:36.509Z,100407.31
2022-08-28T09:37:39.881Z,100409.44
2022-08-28T09:38:42.134Z,100413.44
2022-08-28T09:39:48.692Z,100412.59
2022-08-28T09:41:26.717Z,100409.34
2022-08-28T09:42:48.065Z,100422.59
2022-08-28T09:43:50.332Z,100408.84
2022-08-28T09:45:15.158Z,100414.13
2022-08-28T09:46:29.342Z,100413.44
2022-08-28T09:47:52.414Z,100414.25
2022-08-28T09:49:08.779Z,100413.69
2022-08-28T09:50:23.270Z,100408.19
2022-08-28T09:51:25.436Z,100411.63
2022-08-28T09:52:27.617Z,100412.25
2022-08-28T09:53:32.613Z,100418.94
2022-08-28T09:54:42.092Z,100414.38
2022-08-28T09:56:21.175Z,100414.66
2022-08-28T09:57:23.362Z,100411.38
2022-08-28T09:58:50.710Z,100417.72
2022-08-28T09:59:53.249Z,100415.97
2022-08-28T10:01:13.249Z,100417.84
2022-08-28T10:02:38.065Z,100420.94
2022-08-28T10:04:04.207Z,100417.16
2022-08-28T10:05:13.174Z,100417.75
2022-08-28T10:06:21.873Z,100412.69
2022-08-28T10:07:46.701Z,100423.88
2022-08-28T10:09:06.134Z,100418.44
2022-08-28T10:10:35.363Z,100417.84
2022-08-28T10:11:46.751Z,100407.59
2022-08-28T10:13:15.675Z,100418.28
2022-08-28T10:14:37.418Z,100418.19
2022-08-28T10:16:04.951Z,100411.53
2022-08-28T10:17:30.040Z,100422.59
2022-08-28T10:18:40.190Z,100421.44
2022-08-28T10:20:00.851Z,100422.72
2022-08-28T10:21:13.872Z,100418.34
2022-08-28T10:22:41.460Z,100424.47
2022-08-28T10:23:52.719Z,100421.28
2022-08-28T10:25:23.595Z,100423.84
2022-08-28T10:27:00.260Z,100426.78
2022-08-28T10:28:23.959Z,100427.72
2022-08-28T10:30:02.770Z,100424.16
2022-08-28T10:31:21.742Z,100430.28
2022-08-28T10:32:46.315Z,100425.91
2022-08-28T10:34:02.631Z,100433.19
2022-08-28T10:35:21.181Z,100423.53
2022-08-28T10:36:34.864Z,100434.94
2022-08-28T10:37:58.667Z,100433.41
2022-08-28T10:39:30.094Z,100437.19
2022-08-28T10:40:39.027Z,100428.34
2022-08-28T10:41:50.986Z,100436.91
2022-08-28T10:43:03.898Z,100444.34
2022-08-28T10:44:07.772Z,100431.81
2022-08-28T10:45:17.501Z,100441.59
2022-08-28T10:46:27.220Z,100436.75
2022-08-28T10:47:32.760Z,100437.22
2022-08-28T10:48:56.271Z,100429.19
2022-08-28T10:50:11.958Z,100432.84
2022-08-28T10:51:34.928Z,100432.41
2022-08-28T10:52:45.247Z,100432.75
2022-08-28T10:53:54.414Z,100436.41
2022-08-28T10:55:02.081Z,100431.91
2022-08-28T10:56:13.245Z,100430.28
2022-08-28T10:57:25.468Z,100426.16
2022-08-28T10:58:27.814Z,100426.53
2022-08-28T10:59:41.838Z,100420.06
2022-08-28T11:00:45.480Z,100435.38
2022-08-28T11:01:50.375Z,100432.91
2022-08-28T11:02:58.356Z,100428.44
2022-08-28T11:04:08.177Z,100434.47
2022-08-28T11:05:11.493Z,100437.19
2022-08-28T11:06:54.775Z,100431.88
2022-08-28T11:08:03.368Z,100435.88
2022-08-28T11:09:25.305Z,100437.03
2022-08-28T11:10:50.582Z,100433.41
2022-08-28T11:12:22.919Z,100434.22
2022-08-28T11:13:57.519Z,100427.28
2022-08-28T11:15:37.370Z,100429.28
2022-08-28T11:16:47.189Z,100430.09
2022-08-28T11:17:50.393Z,100423.63
2022-08-28T11:19:01.104Z,100425.19
2022-08-28T11:20:17.790Z,100427.19
2022-08-28T11:21:37.119Z,100430.38
2022-08-28T11:23:10.599Z,100432.38
2022-08-28T11:24:31.349Z,100436.38
2022-08-28T11:25:55.342Z,100428.25
2022-08-28T11:27:03.957Z,100439.94
2022-08-28T11:28:36.717Z,100433.38
2022-08-28T11:30:11.280Z,100433.50
2022-08-28T11:31:29.179Z,100435.41
2022-08-28T11:32:31.758Z,100433.66
2022-08-28T11:33:52.730Z,100436.03
2022-08-28T11:35:01.593Z,100442.38
2022-08-28T11:36:29.855Z,100440.28
2022-08-28T11:37:44.458Z,100439.00
2022-08-28T11:39:17.654Z,100438.88
2022-08-28T11:40:32.354Z,100443.22
2022-08-28T11:41:39.136Z,100433.94
2022-08-28T11:42:42.035Z,100442.44
2022-08-28T11:43:45.928Z,100439.97
2022-08-28T11:44:48.155Z,100436.28
2022-08-28T11:45:53.414Z,100443.13
2022-08-28T11:47:34.592Z,100446.31
2022-08-28T11:48:36.807Z,100435.72
2022-08-28T11:49:42.196Z,100447.03
2022-08-28T11:51:07.138Z,100442.06
2022-08-28T11:52:37.163Z,100444.41
2022-08-28T11:54:17.399Z,100441.47
2022-08-28T11:55:30.123Z,100444.66
2022-08-28T11:56:49.732Z,100450.66
2022-08-28T11:59:35.441Z,100436.44
2022-08-28T12:00:40.753Z,100443.63
2022-08-28T12:01:43.115Z,100443.13
2022-08-28T12:02:50.178Z,100439.00
2022-08-28T12:04:01.929Z,100436.56
2022-08-28T12:05:09.451Z,100438.44
2022-08-28T12:06:16.463Z,100439.63
2022-08-28T12:07:23.006Z,100439.97
2022-08-28T12:08:59.098Z,100436.34
2022-08-28T12:10:05.003Z,100440.69
2022-08-28T12:11:07.805Z,100440.69
2022-08-28T12:12:50.228Z,100437.38
2022-08-28T12:13:55.297Z,100434.94
2022-08-28T12:15:01.327Z,100427.63
2022-08-28T12:16:06.699Z,100432.81
2022-08-28T12:17:30.515Z,100431.16
2022-08-28T12:18:46.557Z,100432.34
2022-08-28T12:20:11.899Z,100443.16
2022-08-28T12:21:21.502Z,100438.69
2022-08-28T12:22:26.803Z,100442.34
2022-08-28T12:23:43.617Z,100437.88
2022-08-28T12:24:59.366Z,100440.22
2022-08-28T12:26:05.804Z,100436.56
2022-08-28T12:27:08.202Z,100434.59
2022-08-28T12:28:26.051Z,100432.44
2022-08-28T12:29:32.333Z,100430.47
2022-08-28T12:30:52.354Z,100434.81
2022-08-28T12:32:26.628Z,100433.97
2022-08-28T12:33:43.629Z,100428.34
2022-08-28T12:35:00.891Z,100420.59
2022-08-28T12:36:06.070Z,100429.06
2022-08-28T12:37:51.838Z,100422.94
2022-08-28T12:39:01.483Z,100427.28
2022-08-28T12:40:38.992Z,100430.00
2022-08-28T12:41:47.096Z,100430.28
2022-08-28T12:42:58.763Z,100426.19
2022-08-28T12:44:01.398Z,100430.19
2022-08-28T12:45:09.632Z,100421.25
2022-08-28T12:46:19.762Z,100428.06
2022-08-28T12:47:26.318Z,100438.53
2022-08-28T12:48:31.756Z,100424.78
2022-08-28T12:49:36.553Z,100423.94
2022-08-28T12:50:40.278Z,100421.03
2022-08-28T12:53:01.888Z,100431.97
2022-08-28T12:54:08.327Z,100427.47
2022-08-28T12:55:10.502Z,100429.50
2022-08-28T12:56:15.184Z,100425.47